Time;durP1;ratioP1;P1;durP2;ratioP2;P2;SDS_P1;SDS_P2;PMS_P1;PMS_P2;Temp;Humidity;BMP_temperature;BMP_pressure;BME280_temperature;BME280_humidity;BME280_pressure;Samples;Min_cycle;Max_cycle;Signal;HPM_P1;HPM_P2
2022/01/25 00:26:46;;;;;;;3.63;1.48;;;;;;;21.20;31.51;101025.63;4232000;27;20035;-45
2022/01/25 00:29:02;;;;;;;4.07;1.80;;;;;;;21.21;31.19;101023.69;4250105;27;20428;-48
2022/01/25 00:31:10;;;;;;;5.28;1.65;;;;;;;21.16;31.29;101013.38;4244533;27;20093;-47
2022/01/25 00:33:12;;;;;;;7.95;1.85;;;;;;;21.19;31.39;101018.41;4219742;28;20144;-46
2022/01/25 00:35:13;;;;;;;4.90;1.80;;;;;;;21.19;31.68;101015.63;4222736;28;20040;-49
2022/01/25 00:37:15;;;;;;;3.90;1.80;;;;;;;21.20;31.41;101017.28;4220549;28;20024;-48
2022/01/25 00:39:16;;;;;;;3.53;1.83;;;;;;;21.19;31.75;101020.34;4215678;28;20040;-48
2022/01/25 00:41:18;;;;;;;4.07;1.60;;;;;;;21.20;31.53;101025.63;4230568;28;20039;-48
2022/01/25 00:43:24;;;;;;;4.85;1.75;;;;;;;21.19;31.52;101020.34;4229080;27;20093;-46
2022/01/25 00:45:31;;;;;;;6.35;2.25;;;;;;;21.16;31.43;101020.91;4233001;28;20044;-50
2022/01/25 00:47:32;;;;;;;4.40;1.73;;;;;;;21.19;31.82;101037.88;4232683;28;20456;-45
2022/01/25 00:49:38;;;;;;;4.10;1.55;;;;;;;21.18;31.98;101033.44;4232376;28;20073;-48
2022/01/25 00:53:56;;;;;;;2.85;1.48;;;;;;;21.18;32.24;101030.66;4233346;28;20028;-53
2022/01/25 00:55:58;;;;;;;3.97;1.55;;;;;;;21.19;32.05;101031.50;4226252;28;20052;-51
2022/01/25 00:58:02;;;;;;;3.95;1.67;;;;;;;21.15;32.31;101020.06;4231598;28;20432;-48
2022/01/25 01:00:07;;;;;;;4.35;2.10;;;;;;;21.20;32.00;101030.38;4231171;28;20482;-45
2022/01/25 01:02:09;;;;;;;;;;;;;;;21.18;32.32;101027.88;4216105;28;20471;-46
2022/01/25 01:04:11;;;;;;;2.97;1.70;;;;;;;21.25;32.48;101017.28;4222022;28;19964;-47
2022/01/25 01:06:14;;;;;;;5.80;2.60;;;;;;;21.23;32.20;101005.59;4231953;28;20044;-46
2022/01/25 01:08:16;;;;;;;4.70;2.42;;;;;;;21.25;31.99;101013.66;4231137;28;20044;-50
2022/01/25 01:10:21;;;;;;;3.47;2.30;;;;;;;21.23;31.97;101005.59;4232184;28;20039;-46
2022/01/25 01:13:09;;;;;;;;;;;;;;;21.19;32.22;101010.06;4233224;28;20043;-45
2022/01/25 01:30:57;;;;;;;7.63;3.55;;;;;;;21.21;32.23;101001.41;4216255;28;20528;-48
2022/01/25 01:41:58;;;;;;;8.82;4.53;;;;;;;21.19;32.30;101037.88;4224711;28;20044;-48
2022/01/25 01:44:02;;;;;;;5.68;3.72;;;;;;;21.19;32.03;101026.75;4219252;28;20056;-49
2022/01/25 01:48:28;;;;;;;6.95;4.18;;;;;;;21.23;32.15;101040.94;4231657;28;20032;-48
2022/01/25 01:50:33;;;;;;;5.97;4.18;;;;;;;21.22;32.18;101028.97;4227520;28;20044;-52
2022/01/25 01:52:34;;;;;;;;;;;;;;;21.23;32.24;101030.66;4227198;28;20047;-50
2022/01/25 01:54:35;;;;;;;5.90;4.30;;;;;;;21.28;31.82;101019.50;4215005;28;19912;-48
2022/01/25 01:56:38;;;;;;;7.20;4.43;;;;;;;21.24;31.55;101004.47;4218870;28;20442;-47
2022/01/25 01:58:40;;;;;;;7.60;5.05;;;;;;;21.20;31.92;100999.75;4231562;28;20112;-46
2022/01/25 02:00:45;;;;;;;7.68;5.15;;;;;;;21.18;32.21;100990.88;4225866;27;20092;-48
2022/01/25 02:02:47;;;;;;;6.13;4.53;;;;;;;21.14;32.05;100973.06;4230834;27;20051;-50
2022/01/25 02:04:48;;;;;;;9.85;5.00;;;;;;;21.17;32.22;100958.59;4234292;27;20047;-48
2022/01/25 02:06:50;;;;;;;8.13;4.82;;;;;;;21.16;31.84;100946.59;4225514;28;20039;-50
2022/01/25 02:08:52;;;;;;;7.05;4.45;;;;;;;21.11;32.21;100968.88;4214458;28;20101;-50
2022/01/25 02:10:54;;;;;;;10.93;5.07;;;;;;;21.06;32.20;100953.03;4228160;28;20043;-50
2022/01/25 02:12:56;;;;;;;8.63;5.00;;;;;;;21.11;32.48;100981.97;4227169;28;20482;-50
2022/01/25 02:14:57;;;;;;;5.63;4.68;;;;;;;21.10;32.34;100989.47;4221580;28;20028;-48
2022/01/25 02:17:08;;;;;;;7.88;4.35;;;;;;;21.10;32.22;100995.03;4224407;28;20489;-47
2022/01/25 02:23:53;;;;;;;7.35;4.47;;;;;;;21.08;32.32;100988.13;4225034;28;20519;-47
2022/01/25 02:25:57;;;;;;;6.55;4.45;;;;;;;21.03;32.40;101002.88;4231217;27;20027;-47
2022/01/25 02:27:58;;;;;;;9.00;4.50;;;;;;;21.01;32.61;101003.13;4241969;27;20043;-50
2022/01/25 02:29:59;;;;;;;9.27;4.65;;;;;;;21.00;32.67;100997.84;4231006;28;20043;-48
2022/01/25 02:32:01;;;;;;;6.65;4.50;;;;;;;20.99;32.66;100998.97;4230760;28;20043;-50
2022/01/25 02:34:05;;;;;;;7.50;4.43;;;;;;;20.99;32.60;101001.75;4226253;28;20385;-45
2022/01/25 02:36:27;;;;;;;11.02;5.18;;;;;;;20.97;32.69;101013.13;4218370;28;20097;-49
2022/01/25 02:38:31;;;;;;;9.77;4.63;;;;;;;21.01;32.82;100999.50;4225329;28;20088;-50
2022/01/25 02:40:32;;;;;;;7.65;4.75;;;;;;;21.01;32.70;100991.16;4224906;28;20052;-49
2022/01/25 02:42:37;;;;;;;7.90;4.93;;;;;;;21.02;32.68;100990.88;4215660;28;20028;-50
2022/01/25 02:44:42;;;;;;;8.68;5.13;;;;;;;21.04;32.78;100990.63;4230181;28;20437;-50
2022/01/25 02:49:00;;;;;;;9.05;4.70;;;;;;;20.98;32.65;100986.16;4231385;28;20080;-51
2022/01/25 02:51:03;;;;;;;7.00;4.72;;;;;;;21.06;32.65;100989.19;4214065;28;20445;-47
2022/01/25 02:53:04;;;;;;;8.23;4.63;;;;;;;21.10;32.92;101000.59;4213699;28;20043;-48
2022/01/25 02:55:09;;;;;;;6.78;4.70;;;;;;;21.10;32.75;100989.47;4215448;27;20135;-48
2022/01/25 02:57:10;;;;;;;6.70;4.38;;;;;;;21.15;32.51;100995.03;4229194;27;20047;-51
2022/01/25 02:59:15;;;;;;;8.07;4.78;;;;;;;21.16;32.75;101004.22;4222021;28;20028;-47
2022/01/25 03:01:17;;;;;;;8.55;4.75;;;;;;;21.18;32.41;101002.81;4229225;28;20035;-47
2022/01/25 03:03:19;;;;;;;6.50;4.30;;;;;;;21.18;32.70;100993.66;4227588;28;20218;-46
2022/01/25 03:05:20;;;;;;;8.10;4.43;;;;;;;21.17;32.68;100983.63;4229552;28;20069;-50
2022/01/25 03:07:21;;;;;;;8.95;4.47;;;;;;;21.21;32.25;100990.28;4229446;28;20444;-44
2022/01/25 03:09:23;;;;;;;8.73;4.82;;;;;;;21.20;32.58;100999.75;4225005;28;20089;-52
2022/01/25 03:11:25;;;;;;;7.05;4.45;;;;;;;21.21;32.72;100993.94;4230022;28;20035;-49
2022/01/25 03:13:33;;;;;;;7.82;4.55;;;;;;;21.22;32.34;100992.81;4225438;28;20039;-52
2022/01/25 03:18:00;;;;;;;6.53;4.03;;;;;;;21.24;32.58;101003.66;4231679;27;20032;-49
2022/01/25 03:20:06;;;;;;;7.57;3.80;;;;;;;21.23;32.35;101011.16;4224917;28;20486;-48
2022/01/25 03:22:18;;;;;;;7.30;4.57;;;;;;;21.22;32.53;101014.25;4229454;28;20088;-46
2022/01/25 03:24:20;;;;;;;6.03;3.58;;;;;;;21.23;32.57;101011.16;4241780;27;20112;-50
2022/01/25 03:26:23;;;;;;;5.90;4.45;;;;;;;21.23;32.13;101013.94;4228902;28;20039;-46
2022/01/25 03:28:24;;;;;;;6.50;3.80;;;;;;;21.20;32.09;101006.16;4227610;28;20065;-46
2022/01/25 03:30:26;;;;;;;6.63;3.80;;;;;;;21.20;32.20;100999.75;4228571;28;20100;-50
2022/01/25 03:32:28;;;;;;;6.72;3.95;;;;;;;21.19;32.39;101004.50;4227176;28;20039;-49
2022/01/25 03:34:29;;;;;;;5.68;3.90;;;;;;;21.17;32.23;100998.38;4225951;28;20423;-51
2022/01/25 03:36:31;;;;;;;5.88;3.53;;;;;;;21.19;32.18;100987.78;4225569;28;20057;-50
2022/01/25 03:38:32;;;;;;;6.22;3.50;;;;;;;21.17;32.19;100986.44;4229098;28;20078;-49
2022/01/25 03:40:34;;;;;;;5.07;3.55;;;;;;;21.17;32.25;100989.22;4229536;28;20112;-48
2022/01/25 03:42:37;;;;;;;6.20;3.67;;;;;;;21.15;32.34;100988.63;4231579;28;20039;-49
2022/01/25 03:44:40;;;;;;;4.50;3.65;;;;;;;21.15;32.03;100992.25;4231727;28;20044;-49
2022/01/25 03:47:07;;;;;;;6.47;3.60;;;;;;;21.15;32.38;100991.41;4228832;28;20055;-49
2022/01/25 03:51:24;;;;;;;5.63;3.83;;;;;;;21.15;32.04;100986.69;4231733;28;20085;-49
2022/01/25 03:53:26;;;;;;;4.00;3.25;;;;;;;21.14;32.07;100978.63;4230043;28;20031;-49
2022/01/25 03:55:27;;;;;;;5.93;2.95;;;;;;;21.14;32.36;100987.81;4229427;28;20092;-47
2022/01/25 03:57:28;;;;;;;5.30;3.53;;;;;;;21.14;32.32;100986.97;4223997;28;20089;-47
2022/01/25 03:59:30;;;;;;;5.35;3.47;;;;;;;21.14;32.47;100989.75;4228815;28;20047;-49
2022/01/25 04:01:32;;;;;;;4.63;3.20;;;;;;;21.12;32.51;100978.91;4224202;28;20039;-49
2022/01/25 04:03:40;;;;;;;4.40;3.35;;;;;;;21.09;32.11;100982.25;4224671;28;20142;-52
2022/01/25 04:07:48;;;;;;;5.90;3.38;;;;;;;21.11;32.44;100982.78;4229629;28;20092;-50
2022/01/25 04:09:49;;;;;;;6.10;3.40;;;;;;;21.11;32.45;100979.19;4222090;28;20101;-52
2022/01/25 04:11:51;;;;;;;5.07;3.47;;;;;;;21.11;32.15;100985.56;4227965;28;20088;-47
2022/01/25 04:13:56;;;;;;;4.10;2.72;;;;;;;21.09;32.24;100981.44;4230243;28;20479;-46
2022/01/25 04:15:59;;;;;;;3.83;3.38;;;;;;;21.10;32.52;100983.91;4229414;28;20096;-47
2022/01/25 04:18:23;;;;;;;5.40;3.30;;;;;;;21.10;32.18;100983.09;4229588;28;20040;-49
2022/01/25 04:20:27;;;;;;;4.07;2.85;;;;;;;21.09;32.25;100975.84;4225242;28;20039;-44
2022/01/25 04:26:58;;;;;;;47.42;26.90;;;;;;;21.01;32.44;100968.91;4230591;28;20425;-48
2022/01/25 04:28:59;;;;;;;62.88;35.28;;;;;;;21.07;32.17;100973.34;4229402;28;20039;-45
2022/01/25 04:31:01;;;;;;;72.60;40.08;;;;;;;21.06;32.15;100966.94;4228166;28;20096;-45
2022/01/25 04:33:15;;;;;;;78.65;43.30;;;;;;;21.04;32.40;100962.78;4230401;28;20032;-49
2022/01/25 04:49:25;;;;;;;102.15;55.13;;;;;;;21.00;32.53;100961.69;4234645;28;20413;-51
2022/01/25 04:55:41;;;;;;;101.43;52.85;;;;;;;20.98;32.51;100936.06;4233623;28;20028;-48
2022/01/25 04:57:53;;;;;;;95.80;52.17;;;;;;;20.88;32.17;100913.84;4214864;28;20094;-49
2022/01/25 05:00:10;;;;;;;96.63;52.75;;;;;;;20.95;32.16;100931.09;4233086;28;20089;-45
2022/01/25 05:02:19;;;;;;;96.28;52.60;;;;;;;20.96;32.32;100921.63;4219264;28;20093;-46
2022/01/25 05:04:29;;;;;;;102.22;53.50;;;;;;;20.95;32.67;100925.53;4215922;28;20036;-45
2022/01/25 05:06:31;;;;;;;93.97;50.92;;;;;;;20.94;32.51;100915.53;4215539;28;20073;-52
2022/01/25 05:08:47;;;;;;;87.80;49.50;;;;;;;20.92;32.25;100920.53;4215817;28;20504;-47
2022/01/25 05:11:02;;;;;;;;;;;;;;;20.90;32.26;100920.81;4231370;28;20441;-47
2022/01/25 05:15:27;;;;;;;88.90;46.35;;;;;;;20.96;32.45;100914.13;4233305;28;20028;-47
2022/01/25 05:17:41;;;;;;;82.43;45.40;;;;;;;20.94;32.21;100909.97;4231488;28;20043;-46
2022/01/25 05:24:13;;;;;;;72.47;41.35;;;;;;;20.91;32.64;100899.38;4216717;28;20039;-46
2022/01/25 05:26:14;;;;;;;76.07;41.42;;;;;;;20.90;32.49;100898.56;4215605;28;20044;-49
2022/01/25 05:28:15;;;;;;;74.43;42.97;;;;;;;20.89;32.34;100898.81;4226973;28;20043;-45
2022/01/25 05:30:17;;;;;;;72.03;39.63;;;;;;;20.85;32.74;100894.94;4222196;28;20545;-49
2022/01/25 05:32:22;;;;;;;73.53;40.80;;;;;;;20.81;32.40;100889.13;4224829;28;20039;-50
2022/01/25 05:34:23;;;;;;;71.18;39.15;;;;;;;20.84;32.57;100891.31;4232528;27;20093;-46
2022/01/25 05:36:26;;;;;;;66.35;38.38;;;;;;;20.80;32.54;100879.94;4232287;28;20035;-46
2022/01/25 05:38:29;;;;;;;67.25;38.03;;;;;;;20.85;32.58;100889.38;4231576;28;20088;-47
2022/01/25 05:41:17;;;;;;;67.80;37.92;;;;;;;20.86;32.48;100888.28;4231807;28;20100;-47
2022/01/25 05:45:37;;;;;;;65.63;36.28;;;;;;;20.89;32.99;100884.91;4216376;28;20093;-49
2022/01/25 05:47:41;;;;;;;60.35;34.60;;;;;;;20.89;32.51;100882.13;4227861;28;20455;-44
2022/01/25 05:49:43;;;;;;;64.43;35.15;;;;;;;20.91;32.65;100879.91;4231800;28;20096;-48
2022/01/25 05:51:54;;;;;;;58.60;35.33;;;;;;;20.92;32.48;100881.59;4232082;28;20056;-47
2022/01/25 05:53:55;;;;;;;64.80;38.00;;;;;;;20.92;32.87;100879.63;4215478;28;20097;-46
2022/01/25 05:55:57;;;;;;;65.57;36.88;;;;;;;20.95;32.66;100886.59;4215535;28;20475;-45
2022/01/25 05:58:01;;;;;;;58.40;35.72;;;;;;;20.95;32.91;100881.03;4214941;28;20040;-47
2022/01/25 06:00:05;;;;;;;58.00;36.00;;;;;;;20.96;32.46;100877.13;4214435;28;20471;-45
2022/01/25 06:02:07;;;;;;;61.00;37.00;;;;;;;20.93;32.71;100866.53;4212442;28;20043;-47
2022/01/25 06:04:09;;;;;;;59.67;36.60;;;;;;;20.99;32.64;100882.13;4225430;28;20035;-47
2022/01/25 06:06:10;;;;;;;60.45;37.20;;;;;;;21.00;32.82;100878.22;4231671;28;20105;-47
2022/01/25 06:08:12;;;;;;;61.00;37.10;;;;;;;21.01;32.63;100882.66;4232044;28;20043;-45
2022/01/25 06:10:13;;;;;;;56.05;34.90;;;;;;;21.01;32.44;100871.53;4231793;27;20044;-47
2022/01/25 06:12:14;;;;;;;56.70;34.63;;;;;;;21.01;32.48;100863.19;4231632;28;20065;-50
2022/01/25 06:14:18;;;;;;;60.25;35.67;;;;;;;21.03;32.73;100866.53;4216917;28;20048;-47
2022/01/25 06:16:20;;;;;;;60.00;33.90;;;;;;;21.02;32.70;100875.97;4215149;28;20028;-46
2022/01/25 06:18:21;;;;;;;55.85;32.97;;;;;;;21.05;32.66;100878.22;4214311;28;20806;-49
2022/01/25 06:20:23;;;;;;;57.90;32.03;;;;;;;21.06;32.47;100865.94;4214016;28;20475;-46
2022/01/25 06:22:27;;;;;;;51.75;33.08;;;;;;;21.07;32.47;100864.81;4214636;28;20101;-47
2022/01/25 06:24:28;;;;;;;55.28;32.33;;;;;;;21.09;32.58;100868.19;4230564;28;20080;-48
2022/01/25 06:26:30;;;;;;;50.28;30.50;;;;;;;21.10;32.89;100867.06;4231187;28;20035;-48
2022/01/25 06:28:31;;;;;;;59.17;31.50;;;;;;;21.12;32.69;100864.84;4230813;28;20432;-48
2022/01/25 06:30:33;;;;;;;69.43;30.08;;;;;;;21.12;32.73;100864.84;4231514;28;20096;-46
2022/01/25 06:32:35;;;;;;;58.05;30.38;;;;;;;21.16;32.64;100859.50;4215400;28;20093;-46
2022/01/25 06:34:36;;;;;;;68.78;30.63;;;;;;;21.23;34.01;100869.22;4230530;28;20104;-48
2022/01/25 06:36:37;;;;;;;62.28;29.10;;;;;;;21.25;33.78;100869.75;4231198;28;20097;-46
2022/01/25 06:38:39;;;;;;;57.20;29.00;;;;;;;21.26;33.96;100857.53;4231042;28;20425;-46
2022/01/25 06:40:41;;;;;;;47.95;27.52;;;;;;;21.26;33.98;100877.03;4230376;28;20444;-49
2022/01/25 06:42:42;;;;;;;61.40;28.60;;;;;;;21.23;33.96;100866.44;4230247;28;20039;-46
2022/01/25 06:44:44;;;;;;;57.95;26.80;;;;;;;21.26;34.03;100876.19;4214417;28;20089;-49
2022/01/25 06:46:46;;;;;;;53.55;26.27;;;;;;;21.26;34.19;100870.63;4213979;28;20032;-46
2022/01/25 06:48:47;;;;;;;49.45;26.25;;;;;;;21.26;34.44;100865.88;4213744;28;20450;-51
2022/01/25 06:50:49;;;;;;;47.50;26.13;;;;;;;21.28;34.21;100879.50;4213671;28;20442;-48
2022/01/25 06:52:51;;;;;;;54.08;26.73;;;;;;;21.30;34.08;100889.25;4214706;28;20093;-48
2022/01/25 06:54:53;;;;;;;42.45;25.25;;;;;;;21.31;34.39;100888.16;4231508;28;20039;-46
2022/01/25 06:56:54;;;;;;;44.28;24.25;;;;;;;21.33;34.34;100882.28;4231652;28;20813;-52
2022/01/25 06:58:55;;;;;;;45.80;24.20;;;;;;;21.31;34.11;100882.59;4231034;28;20035;-47
2022/01/25 07:00:59;;;;;;;41.03;23.38;;;;;;;21.35;34.30;100890.34;4230550;28;20032;-48
2022/01/25 07:03:01;;;;;;;38.13;22.48;;;;;;;21.34;34.16;100892.31;4230085;28;20084;-47
2022/01/25 07:05:03;;;;;;;39.72;23.75;;;;;;;21.36;34.28;100894.81;4230761;28;20039;-52
2022/01/25 07:07:05;;;;;;;42.47;21.77;;;;;;;21.34;34.39;100894.25;4230220;28;20041;-47
2022/01/25 07:09:08;;;;;;;38.38;22.63;;;;;;;21.36;34.07;100901.22;4230222;28;20043;-46
2022/01/25 07:11:09;;;;;;;38.42;21.17;;;;;;;21.34;34.11;100888.69;4230689;28;20047;-50
2022/01/25 07:13:11;;;;;;;37.17;22.55;;;;;;;21.30;33.79;100880.91;4229493;28;20043;-48
2022/01/25 07:15:16;;;;;;;36.22;20.88;;;;;;;21.29;34.32;100890.34;4231190;28;20057;-50
2022/01/25 07:17:20;;;;;;;34.33;20.83;;;;;;;21.26;34.34;100890.09;4230102;28;20096;-47
2022/01/25 07:19:22;;;;;;;34.50;20.83;;;;;;;21.22;34.14;100887.06;4229891;28;20039;-46
2022/01/25 07:21:26;;;;;;;35.47;20.17;;;;;;;21.23;33.94;100888.72;4230532;28;20428;-46
2022/01/25 07:23:28;;;;;;;33.33;18.95;;;;;;;21.21;33.94;100890.97;4229964;28;20548;-46
2022/01/25 07:25:29;;;;;;;30.50;19.95;;;;;;;21.21;34.12;100890.97;4225029;28;20035;-46
2022/01/25 07:27:31;;;;;;;29.75;19.05;;;;;;;21.16;34.16;100893.72;4225895;28;20093;-45
2022/01/25 07:29:32;;;;;;;32.30;19.80;;;;;;;21.19;33.85;100906.25;4212974;28;20048;-47
2022/01/25 07:31:34;;;;;;;32.47;19.30;;;;;;;21.19;34.03;100904.31;4221763;28;20078;-47
2022/01/25 07:33:38;;;;;;;33.70;19.85;;;;;;;21.18;33.94;100902.66;4230939;28;20089;-49
2022/01/25 07:35:40;;;;;;;30.60;19.58;;;;;;;21.16;33.70;100902.09;4230925;28;20027;-49
2022/01/25 07:37:42;;;;;;;29.42;17.75;;;;;;;21.17;33.82;100903.78;4229767;28;20092;-47
2022/01/25 07:39:47;;;;;;;26.95;17.67;;;;;;;21.14;34.08;100895.97;4229904;28;20101;-46
2022/01/25 07:41:49;;;;;;;28.92;17.27;;;;;;;21.16;33.96;100896.50;4230083;28;20139;-52
2022/01/25 07:43:52;;;;;;;30.23;18.45;;;;;;;21.15;34.00;100894.84;4230626;28;20044;-47
2022/01/25 07:45:56;;;;;;;28.60;17.02;;;;;;;21.14;33.71;100901.53;4224739;28;20490;-45
2022/01/25 07:47:57;;;;;;;29.40;17.17;;;;;;;21.13;33.84;100905.44;4228237;28;20043;-49
2022/01/25 07:49:59;;;;;;;27.80;16.77;;;;;;;21.13;33.68;100901.84;4230425;28;20040;-49
2022/01/25 07:52:03;;;;;;;24.67;16.33;;;;;;;21.08;33.64;100913.00;4222344;28;20101;-49
2022/01/25 07:54:10;;;;;;;26.15;16.23;;;;;;;21.11;33.81;100918.78;4213755;28;20501;-46
2022/01/25 07:56:12;;;;;;;23.35;15.57;;;;;;;21.13;33.83;100913.81;4222393;28;20039;-48
2022/01/25 07:58:14;;;;;;;23.35;15.98;;;;;;;21.13;33.65;100921.31;4225362;28;20096;-51
2022/01/25 08:00:15;;;;;;;22.98;15.57;;;;;;;21.11;33.88;100924.38;4227961;28;20036;-49
2022/01/25 08:02:19;;;;;;;25.25;15.63;;;;;;;21.12;33.59;100926.06;4219163;28;20064;-46
2022/01/25 08:04:20;;;;;;;22.30;15.10;;;;;;;21.09;33.69;100903.53;4229957;28;20043;-48
2022/01/25 08:06:24;;;;;;;27.10;14.65;;;;;;;21.10;33.81;100911.56;4225763;28;20101;-44
2022/01/25 08:08:25;;;;;;;21.17;13.18;;;;;;;21.10;33.80;100914.34;4226693;28;20168;-50
2022/01/25 08:10:27;;;;;;;23.80;14.43;;;;;;;21.09;33.70;100904.34;4225174;28;20077;-49
2022/01/25 08:12:29;;;;;;;22.30;14.20;;;;;;;21.09;33.69;100912.69;4213646;28;20032;-46
2022/01/25 08:14:30;;;;;;;21.33;13.50;;;;;;;21.07;33.96;100906.56;4216725;28;20040;-48
2022/01/25 08:16:31;;;;;;;22.23;14.02;;;;;;;21.09;33.98;100909.91;4217069;28;20032;-48
2022/01/25 08:18:33;;;;;;;20.83;13.73;;;;;;;21.09;33.97;100907.13;4229276;28;20031;-45
2022/01/25 08:20:34;;;;;;;19.83;12.70;;;;;;;21.11;33.58;100902.09;4236426;27;20023;-45
2022/01/25 08:22:36;;;;;;;20.25;12.98;;;;;;;21.11;33.72;100913.22;4233295;28;20073;-47
2022/01/25 08:24:37;;;;;;;18.20;12.15;;;;;;;21.12;33.66;100898.22;4233019;28;20524;-47
2022/01/25 08:26:39;;;;;;;18.05;11.50;;;;;;;21.14;33.74;100911.84;4233251;28;20368;-45
2022/01/25 08:28:40;;;;;;;17.33;11.52;;;;;;;21.15;33.33;100914.34;4232115;28;20052;-45
2022/01/25 08:30:42;;;;;;;16.67;11.10;;;;;;;21.17;33.51;100922.41;4233518;28;20039;-48
2022/01/25 08:32:43;;;;;;;17.55;11.18;;;;;;;21.18;33.57;100921.28;4233299;28;20404;-46
2022/01/25 08:34:45;;;;;;;15.57;10.52;;;;;;;21.14;33.18;100918.25;4232823;28;20044;-46
2022/01/25 08:36:46;;;;;;;16.52;11.05;;;;;;;21.20;33.17;100927.41;4232712;28;20044;-46
2022/01/25 08:38:48;;;;;;;17.00;10.45;;;;;;;21.20;33.41;100927.41;4217734;28;20425;-50
2022/01/25 08:40:49;;;;;;;18.35;10.82;;;;;;;21.22;33.49;100925.19;4215896;28;20044;-48
2022/01/25 08:42:51;;;;;;;14.20;9.38;;;;;;;21.23;33.47;100930.47;4216237;28;20135;-48
2022/01/25 08:44:52;;;;;;;14.93;9.45;;;;;;;21.22;33.18;100937.16;4216142;28;20040;-48
2022/01/25 08:46:53;;;;;;;13.32;9.60;;;;;;;21.22;32.99;100934.38;4216265;28;20028;-46
2022/01/25 08:48:57;;;;;;;18.55;10.43;;;;;;;21.24;33.28;100934.91;4231033;28;20096;-46
2022/01/25 08:51:00;;;;;;;13.15;9.15;;;;;;;21.24;33.38;100946.03;4232583;28;20368;-49
2022/01/25 08:53:02;;;;;;;13.45;9.27;;;;;;;21.25;33.40;100936.56;4233003;28;20101;-46
2022/01/25 08:55:05;;;;;;;13.88;8.88;;;;;;;21.23;33.26;100921.28;4228006;28;20040;-48
2022/01/25 08:57:06;;;;;;;12.50;8.88;;;;;;;21.26;33.15;100926.28;4216392;28;20032;-49
2022/01/25 08:59:09;;;;;;;13.25;8.80;;;;;;;21.25;33.24;100928.22;4215664;28;20089;-48
2022/01/25 09:01:10;;;;;;;13.50;8.73;;;;;;;21.25;33.40;100922.63;4216101;28;20090;-44
2022/01/25 09:03:15;;;;;;;13.73;8.65;;;;;;;21.28;33.14;100924.88;4225490;28;20089;-45
2022/01/25 09:05:19;;;;;;;12.17;8.10;;;;;;;21.28;33.18;100927.66;4223913;28;20032;-48
2022/01/25 09:07:20;;;;;;;13.60;8.43;;;;;;;21.26;33.20;100915.97;4227729;28;20268;-44
2022/01/25 09:09:22;;;;;;;11.70;8.13;;;;;;;21.31;33.06;100932.69;4231826;28;20500;-47
2022/01/25 09:11:23;;;;;;;12.23;7.57;;;;;;;21.29;33.50;100929.31;4220299;28;20036;-46
2022/01/25 09:13:25;;;;;;;10.15;6.88;;;;;;;21.33;33.34;100928.78;4215220;28;20113;-48
2022/01/25 09:15:26;;;;;;;11.73;7.45;;;;;;;21.31;33.39;100929.91;4215474;28;20044;-49
2022/01/25 09:17:28;;;;;;;10.85;7.45;;;;;;;21.32;33.57;100933.53;4216523;28;20044;-45
2022/01/25 09:19:32;;;;;;;11.20;7.90;;;;;;;21.33;33.26;100932.41;4230766;28;20043;-49
2022/01/25 09:21:33;;;;;;;12.73;7.82;;;;;;;21.33;33.18;100931.56;4232186;28;20036;-45
2022/01/25 09:23:35;;;;;;;10.25;6.95;;;;;;;21.29;33.44;100932.09;4227718;28;20440;-48
2022/01/25 09:25:37;;;;;;;11.38;7.10;;;;;;;21.32;33.35;100939.09;4231291;28;20417;-44
2022/01/25 09:27:39;;;;;;;11.48;7.13;;;;;;;21.29;33.28;100934.88;4227735;28;20479;-48
2022/01/25 09:29:40;;;;;;;11.80;7.28;;;;;;;21.34;33.68;100944.38;4214699;28;20101;-49
2022/01/25 09:31:45;;;;;;;13.10;6.90;;;;;;;21.32;33.33;100953.00;4223888;28;20068;-50
2022/01/25 09:33:46;;;;;;;10.30;6.85;;;;;;;21.33;33.38;100945.50;4230054;28;20100;-51
2022/01/25 09:35:48;;;;;;;11.48;6.22;;;;;;;21.34;33.73;100933.22;4229954;28;20039;-47
2022/01/25 09:37:50;;;;;;;9.63;5.88;;;;;;;21.31;33.35;100932.69;4228126;28;20031;-46
2022/01/25 09:39:52;;;;;;;10.13;6.50;;;;;;;21.31;33.56;100935.47;4229682;28;20036;-49
2022/01/25 09:41:54;;;;;;;9.95;6.43;;;;;;;21.33;33.46;100937.13;4230443;28;20097;-48
2022/01/25 09:43:56;;;;;;;8.00;5.88;;;;;;;21.31;33.20;100941.03;4227201;28;20040;-46
2022/01/25 09:45:57;;;;;;;10.05;6.43;;;;;;;21.25;33.42;100936.56;4214810;28;20372;-48
2022/01/25 09:47:59;;;;;;;9.43;6.28;;;;;;;21.30;33.22;100928.22;4217341;28;20028;-47
2022/01/25 09:50:00;;;;;;;10.13;6.00;;;;;;;21.31;33.25;100945.78;4201130;28;20044;-46
2022/01/25 09:52:06;;;;;;;9.95;6.07;;;;;;;21.30;33.11;100944.91;4224608;28;20032;-45
2022/01/25 09:54:08;;;;;;;7.78;5.20;;;;;;;21.25;33.49;100919.84;4232059;28;20165;-48
2022/01/25 09:56:12;;;;;;;8.38;5.75;;;;;;;21.26;33.61;100929.91;4227570;28;20068;-47
2022/01/25 09:58:16;;;;;;;7.93;5.03;;;;;;;21.28;33.27;100919.31;4227763;28;20023;-48
2022/01/25 10:00:24;;;;;;;9.57;5.57;;;;;;;21.26;33.28;100927.13;4226994;28;20417;-49
2022/01/25 10:02:52;;;;;;;10.25;6.45;;;;;;;21.25;33.25;100931.00;4215421;28;20445;-50
2022/01/25 10:04:54;;;;;;;7.90;5.43;;;;;;;21.27;33.38;100930.72;4218845;28;20063;-49
2022/01/25 10:06:56;;;;;;;8.73;5.90;;;;;;;21.25;33.39;100931.00;4231586;28;20101;-46
2022/01/25 10:08:58;;;;;;;9.05;5.78;;;;;;;21.26;33.52;100932.69;4230675;28;20044;-46
2022/01/25 10:11:08;;;;;;;8.07;5.32;;;;;;;21.23;33.46;100922.09;4231159;28;20039;-47
2022/01/25 10:13:14;;;;;;;8.43;5.25;;;;;;;21.25;33.30;100922.63;4231975;28;20103;-51
2022/01/25 10:15:15;;;;;;;8.02;5.00;;;;;;;21.25;33.30;100925.44;4231933;28;20097;-49
2022/01/25 10:17:31;;;;;;;7.15;5.00;;;;;;;21.20;33.32;100928.22;4226697;28;20039;-50
2022/01/25 10:19:41;;;;;;;;;;;;;;;21.20;33.69;100922.66;4228517;28;20055;-47
2022/01/25 10:21:49;;;;;;;7.07;5.20;;;;;;;21.25;33.12;100925.44;4231080;28;20266;-46
2022/01/25 10:24:14;;;;;;;6.45;4.85;;;;;;;21.23;33.31;100930.47;4216667;28;20044;-48
2022/01/25 10:26:15;;;;;;;6.30;5.05;;;;;;;21.24;33.63;100932.13;4214934;28;20040;-47
2022/01/25 10:28:24;;;;;;;6.32;4.40;;;;;;;21.23;33.61;100937.97;4219955;28;20043;-45
2022/01/25 10:30:25;;;;;;;8.15;5.15;;;;;;;21.21;33.54;100940.19;4230643;28;20077;-44
2022/01/25 10:32:27;;;;;;;6.22;4.53;;;;;;;21.22;33.56;100941.88;4230855;28;20088;-45
2022/01/25 10:34:32;;;;;;;6.43;4.80;;;;;;;21.20;33.60;100942.16;4229142;28;20043;-46
2022/01/25 10:36:38;;;;;;;6.63;4.78;;;;;;;21.19;33.71;100934.91;4213932;28;20144;-46
2022/01/25 10:38:43;;;;;;;6.97;4.47;;;;;;;21.18;33.28;100941.59;4222879;28;20073;-44
2022/01/25 10:40:54;;;;;;;6.45;4.55;;;;;;;21.17;33.66;100941.91;4231756;28;20110;-47
2022/01/25 10:42:59;;;;;;;6.47;4.20;;;;;;;21.17;33.43;100934.38;4227234;28;20036;-46
2022/01/25 10:45:09;;;;;;;7.05;4.47;;;;;;;21.14;33.56;100923.81;4221353;28;20039;-45
2022/01/25 10:47:10;;;;;;;6.72;4.35;;;;;;;21.16;33.78;100935.47;4230992;28;20043;-47
2022/01/25 10:49:14;;;;;;;5.85;3.97;;;;;;;21.15;33.57;100936.59;4227487;28;20077;-45
2022/01/25 10:51:25;;;;;;;6.53;4.45;;;;;;;21.13;33.44;100927.72;4230985;28;20036;-47
2022/01/25 10:53:26;;;;;;;7.60;4.90;;;;;;;21.14;33.57;100946.06;4228484;28;20040;-48
2022/01/25 10:55:40;;;;;;;6.63;4.35;;;;;;;21.14;33.70;100942.47;4214812;28;20081;-48
2022/01/25 10:57:42;;;;;;;6.18;4.28;;;;;;;21.15;33.75;100946.91;4213973;28;20704;-47
2022/01/25 11:00:06;;;;;;;7.00;4.15;;;;;;;21.13;33.88;100944.41;4227186;28;20035;-52
2022/01/25 11:02:08;;;;;;;6.05;4.25;;;;;;;21.16;33.57;100938.25;4221938;28;20097;-45
2022/01/25 11:04:16;;;;;;;4.93;4.10;;;;;;;21.16;33.80;100943.81;4214106;28;20043;-51
2022/01/25 11:06:20;;;;;;;6.60;3.70;;;;;;;21.18;33.49;100952.75;4229346;28;20567;-47
2022/01/25 11:08:24;;;;;;;5.65;3.60;;;;;;;21.20;33.40;100969.13;4225706;28;20376;-48
2022/01/25 11:10:25;;;;;;;5.43;3.90;;;;;;;21.22;33.54;100969.72;4230958;28;20478;-50
2022/01/25 11:12:35;;;;;;;5.55;3.78;;;;;;;21.22;33.32;100969.72;4229182;28;20520;-48